Pagrindinis puslapis
METAR-TAF:

METAR-TAF

Oro uostai :

Orhusas, Danija

platuma: 56-18N, ilguma: 010-37E, Aukštis: 23 m

Dabartinis oras

Ataskaita buvo paskelbta 22 minutes, ne 20:20 UTC
Vėjas 7 kt iš Pietryčių, svyruoja nuo Rytų/Pietryčių ir Pietų
Temperatūra 21°C
Drėgmė 73%
Slėgis 1012 hPa
Matomumas 10 km arba daugiau

METAR: EKAH 172020Z AUTO 13007KT 110V170 9999 NCD 21/16 Q1012

Laikas: 22:42 (20:42 UTC)

Prognozė

Ataskaita buvo paskelbta 3 valandos ir 41 minutes, ne 17:01 UTC
Prognozė galioja nuo 17 metu 18 UTC su 18 metu 18 UTC
Vėjas 10 kt iš Pietryčių
Matomumas 10 km arba daugiau
nėra debesų žemiau 1500 m ir nėra kamuolinių lietaus debesų
Tapsmas
nuo 18 metu 03 UTC su 18 metu 05 UTC
Vėjas 5 kt iš Vakarų/Šiaurės Vakarų

TAF: EKAH 171701Z 1718/1818 14010KT CAVOK BECMG 1803/1805 30005KT

Orai ataskaitas ir orų prognozės (METAR, TAF).

turimą stotys yra geltonos ir raudonos taškus žemėlapyje.

Perkelti pele per norėdami pamatyti stoties vardą.

Tada spustelėkite, norėdami matyti oro stebėjimo ir prognozės.

Norėdami pakeisti žemėlapį: spustelėkite ant žalios mygtukų su juodo kryžiaus žemyn,; žalią mygtuką su brūkšneliu, jei norite nutolinti; arba žalių rodyklių gretimoms žemėlapius.


METAR-TAF: